createdAt,value
2022-10-19T00:01:38.892Z,15.10
2022-10-19T00:04:08.664Z,15.04
2022-10-19T00:06:36.670Z,15.00
2022-10-19T00:09:08.520Z,15.13
2022-10-19T00:11:37.069Z,15.17
2022-10-19T00:14:04.718Z,15.18
2022-10-19T00:16:34.168Z,15.25
2022-10-19T00:19:04.283Z,15.30
2022-10-19T00:21:31.065Z,15.35
2022-10-19T00:23:57.843Z,15.38
2022-10-19T00:26:26.079Z,15.39
2022-10-19T00:28:56.573Z,15.47
2022-10-19T00:31:23.847Z,15.53
2022-10-19T00:33:50.603Z,15.58
2022-10-19T00:36:42.119Z,15.63
2022-10-19T00:39:12.869Z,15.64
2022-10-19T00:41:40.099Z,15.65
2022-10-19T00:44:29.534Z,15.70
2022-10-19T00:47:05.362Z,15.73
2022-10-19T00:49:39.551Z,15.77
2022-10-19T00:52:14.283Z,15.76
2022-10-19T00:54:42.715Z,15.75
2022-10-19T00:57:09.978Z,15.70
2022-10-19T00:59:37.084Z,15.69
2022-10-19T01:02:05.762Z,15.70
2022-10-19T01:04:35.472Z,15.63
2022-10-19T01:07:04.007Z,15.66
2022-10-19T01:09:30.639Z,15.70
2022-10-19T01:12:08.154Z,15.77
2022-10-19T01:14:50.163Z,15.78
2022-10-19T01:17:39.059Z,15.77
2022-10-19T01:20:30.782Z,15.77
2022-10-19T01:23:29.315Z,15.75
2022-10-19T01:26:03.152Z,15.73
2022-10-19T01:29:08.683Z,15.75
2022-10-19T01:31:44.543Z,15.80
2022-10-19T01:34:21.361Z,15.76
2022-10-19T01:37:00.753Z,15.70
2022-10-19T01:39:36.270Z,15.66
2022-10-19T01:42:16.829Z,15.61
2022-10-19T01:44:49.186Z,15.50
2022-10-19T01:47:20.021Z,15.44
2022-10-19T01:50:03.491Z,15.49
2022-10-19T01:52:31.576Z,15.44
2022-10-19T01:54:59.907Z,15.47
2022-10-19T01:57:34.982Z,15.47
2022-10-19T02:00:07.514Z,15.50
2022-10-19T02:02:46.637Z,15.49
2022-10-19T02:05:14.419Z,15.52
2022-10-19T02:07:45.313Z,15.52
2022-10-19T02:10:11.979Z,15.53
2022-10-19T02:12:39.265Z,15.57
2022-10-19T02:15:11.239Z,15.58
2022-10-19T02:17:45.780Z,15.56
2022-10-19T02:20:13.272Z,15.60
2022-10-19T02:22:40.481Z,15.65
2022-10-19T02:25:07.827Z,15.63
2022-10-19T02:27:35.070Z,15.63
2022-10-19T02:30:01.943Z,15.65
2022-10-19T02:32:28.621Z,15.65
2022-10-19T02:34:55.321Z,15.65
2022-10-19T02:37:23.433Z,15.69
2022-10-19T02:39:52.339Z,15.72
2022-10-19T02:42:23.526Z,15.64
2022-10-19T02:44:57.519Z,15.66
2022-10-19T02:47:33.920Z,15.68
2022-10-19T02:50:01.429Z,15.66
2022-10-19T02:52:28.362Z,15.70
2022-10-19T02:54:55.044Z,15.72
2022-10-19T02:57:24.080Z,15.71
2022-10-19T02:59:51.736Z,15.72
2022-10-19T03:02:19.941Z,15.66
2022-10-19T03:07:34.602Z,15.43
2022-10-19T03:10:01.720Z,15.40
2022-10-19T03:12:28.625Z,15.28
2022-10-19T03:14:55.441Z,15.19
2022-10-19T03:17:22.171Z,15.19
2022-10-19T03:19:48.774Z,15.20
2022-10-19T03:22:15.821Z,15.15
2022-10-19T03:24:42.497Z,15.18
2022-10-19T03:27:09.241Z,15.26
2022-10-19T03:29:36.283Z,15.31
2022-10-19T03:32:02.913Z,15.35
2022-10-19T03:34:29.499Z,15.41
2022-10-19T03:36:56.851Z,15.45
2022-10-19T03:39:23.555Z,15.50
2022-10-19T03:41:50.162Z,15.48
2022-10-19T03:44:16.807Z,15.44
2022-10-19T03:46:43.623Z,15.45
2022-10-19T03:49:15.674Z,15.46
2022-10-19T03:51:42.409Z,15.43
2022-10-19T03:54:13.030Z,15.41
2022-10-19T03:56:39.631Z,15.32
2022-10-19T03:59:07.020Z,15.28
2022-10-19T04:01:38.912Z,15.23
2022-10-19T04:04:09.032Z,15.18
2022-10-19T04:06:38.135Z,15.15
2022-10-19T04:09:06.704Z,15.09
2022-10-19T04:11:34.256Z,15.03
2022-10-19T04:14:01.768Z,14.99
2022-10-19T04:16:30.533Z,15.02
2022-10-19T04:18:57.983Z,14.92
2022-10-19T04:21:35.547Z,14.89
2022-10-19T04:24:03.713Z,14.86
2022-10-19T04:26:30.699Z,14.83
2022-10-19T04:28:58.884Z,14.87
2022-10-19T04:31:26.440Z,14.89
2022-10-19T04:33:53.244Z,14.83
2022-10-19T04:36:19.899Z,14.84
2022-10-19T04:38:46.595Z,14.78
2022-10-19T04:41:16.345Z,14.70
2022-10-19T04:43:45.379Z,14.65
2022-10-19T04:46:14.339Z,14.62
2022-10-19T04:48:41.653Z,14.70
2022-10-19T04:51:09.356Z,14.75
2022-10-19T04:53:37.844Z,14.76
2022-10-19T04:56:06.499Z,14.83
2022-10-19T04:58:33.368Z,14.85
2022-10-19T05:01:00.388Z,14.87
2022-10-19T05:03:27.173Z,14.88
2022-10-19T05:05:54.029Z,14.90
2022-10-19T05:08:20.620Z,14.91
2022-10-19T05:10:47.830Z,14.86
2022-10-19T05:13:14.607Z,14.85
2022-10-19T05:15:41.279Z,14.87
2022-10-19T05:18:07.922Z,14.89
2022-10-19T05:20:34.590Z,14.91
2022-10-19T05:23:06.158Z,14.97
2022-10-19T05:25:34.030Z,14.97
2022-10-19T05:28:00.706Z,14.97
2022-10-19T05:30:27.665Z,14.96
2022-10-19T05:32:54.301Z,14.99
2022-10-19T05:35:22.658Z,14.89
2022-10-19T05:37:54.427Z,14.84
2022-10-19T05:40:21.278Z,14.92
2022-10-19T05:42:47.921Z,14.86
2022-10-19T05:45:14.657Z,14.78
2022-10-19T05:47:41.286Z,14.70
2022-10-19T05:50:08.265Z,14.64
2022-10-19T05:52:34.885Z,14.65
2022-10-19T05:55:01.505Z,14.62
2022-10-19T05:57:28.176Z,14.61
2022-10-19T05:59:56.790Z,14.57
2022-10-19T06:02:23.772Z,14.53
2022-10-19T06:04:50.483Z,14.49
2022-10-19T06:07:17.152Z,14.49
2022-10-19T06:09:43.867Z,14.47
2022-10-19T06:12:10.560Z,14.44
2022-10-19T06:14:37.274Z,14.49
2022-10-19T06:17:04.068Z,14.53
2022-10-19T06:19:30.880Z,14.59
2022-10-19T06:21:57.509Z,14.65
2022-10-19T06:24:24.276Z,14.70
2022-10-19T06:26:50.874Z,14.77
2022-10-19T06:29:17.657Z,14.86
2022-10-19T06:31:45.705Z,14.92
2022-10-19T06:34:12.464Z,14.96
2022-10-19T06:36:39.144Z,14.99
2022-10-19T06:39:05.769Z,15.03
2022-10-19T06:41:32.683Z,15.03
2022-10-19T06:44:16.109Z,15.09
2022-10-19T06:46:42.731Z,15.17
2022-10-19T06:49:12.624Z,15.26
2022-10-19T06:51:40.702Z,15.39
2022-10-19T06:54:07.521Z,15.46
2022-10-19T06:56:34.666Z,15.44
2022-10-19T06:59:01.286Z,15.50
2022-10-19T07:01:28.316Z,15.43
2022-10-19T07:03:55.426Z,15.35
2022-10-19T07:06:22.209Z,15.32
2022-10-19T07:08:49.132Z,15.36
2022-10-19T07:11:18.588Z,15.35
2022-10-19T07:13:45.241Z,15.42
2022-10-19T07:16:17.904Z,15.62
2022-10-19T07:18:47.948Z,15.74
2022-10-19T07:21:16.300Z,15.82
2022-10-19T07:23:44.467Z,15.85
2022-10-19T07:26:16.087Z,15.90
2022-10-19T07:28:44.660Z,15.87
2022-10-19T07:31:13.628Z,15.96
2022-10-19T07:33:40.262Z,15.97
2022-10-19T07:36:08.703Z,16.07
2022-10-19T07:38:35.731Z,16.06
2022-10-19T07:41:07.667Z,16.08
2022-10-19T07:43:34.905Z,16.14
2022-10-19T07:46:03.634Z,16.28
2022-10-19T07:48:30.836Z,16.48
2022-10-19T07:50:57.636Z,16.61
2022-10-19T07:53:24.601Z,16.72
2022-10-19T07:55:51.276Z,16.82
2022-10-19T07:58:17.878Z,16.85
2022-10-19T08:00:44.667Z,16.88
2022-10-19T08:03:43.609Z,16.98
2022-10-19T08:06:02.391Z,17.01
2022-10-19T08:08:29.383Z,17.07
2022-10-19T08:10:56.320Z,17.05
2022-10-19T08:13:23.515Z,17.15
2022-10-19T08:15:50.400Z,17.30
2022-10-19T08:18:18.455Z,17.37
2022-10-19T08:20:45.137Z,17.43
2022-10-19T08:23:11.817Z,17.47
2022-10-19T08:25:38.536Z,17.43
2022-10-19T08:28:05.235Z,17.35
2022-10-19T08:30:32.144Z,17.25
2022-10-19T08:32:58.757Z,17.31
2022-10-19T08:35:25.751Z,17.16
2022-10-19T08:37:52.772Z,17.22
2022-10-19T08:40:23.679Z,17.26
2022-10-19T08:43:00.648Z,17.40
2022-10-19T08:45:39.339Z,17.38
2022-10-19T08:48:29.507Z,17.33
2022-10-19T08:50:57.327Z,17.28
2022-10-19T08:53:32.472Z,17.33
2022-10-19T08:56:39.044Z,17.16
2022-10-19T08:59:11.320Z,17.16
2022-10-19T09:01:50.110Z,17.17
2022-10-19T09:04:26.592Z,17.16
2022-10-19T09:07:16.814Z,16.96
2022-10-19T09:12:41.145Z,17.18
2022-10-19T09:15:13.380Z,17.25
2022-10-19T09:17:40.054Z,17.40
2022-10-19T09:20:22.122Z,17.53
2022-10-19T09:22:58.788Z,17.58
2022-10-19T09:25:25.774Z,17.73
2022-10-19T09:28:10.679Z,17.75
2022-10-19T09:30:38.110Z,17.82
2022-10-19T09:33:06.234Z,17.81
2022-10-19T09:35:36.841Z,17.85
2022-10-19T09:38:05.353Z,17.87
2022-10-19T09:40:32.134Z,18.01
2022-10-19T09:42:59.523Z,18.11
2022-10-19T09:45:45.899Z,18.11
2022-10-19T09:48:23.834Z,18.15
2022-10-19T09:50:59.701Z,18.18
2022-10-19T09:53:27.179Z,18.08
2022-10-19T09:56:19.006Z,18.18
2022-10-19T09:58:50.643Z,18.21
2022-10-19T10:01:41.831Z,18.23
2022-10-19T10:04:18.731Z,18.16
2022-10-19T10:06:48.292Z,18.09
2022-10-19T10:09:37.990Z,18.08
2022-10-19T10:12:04.786Z,18.17
2022-10-19T10:14:33.803Z,18.14
2022-10-19T10:17:16.352Z,18.15
2022-10-19T10:20:00.287Z,18.20
2022-10-19T10:22:37.777Z,18.26
2022-10-19T10:25:18.222Z,18.12
2022-10-19T10:28:12.692Z,18.41
2022-10-19T10:30:39.337Z,18.58
2022-10-19T10:33:15.855Z,18.46
2022-10-19T10:35:55.960Z,18.74
2022-10-19T10:38:26.713Z,18.94
2022-10-19T10:41:08.338Z,19.16
2022-10-19T10:43:36.863Z,19.23
2022-10-19T10:46:08.612Z,19.16
2022-10-19T10:48:42.521Z,18.93
2022-10-19T10:51:25.358Z,18.85
2022-10-19T10:53:52.104Z,18.59
2022-10-19T10:56:23.880Z,18.55
2022-10-19T10:58:56.540Z,18.52
2022-10-19T11:01:24.484Z,18.55
2022-10-19T11:03:56.327Z,18.57
2022-10-19T11:06:25.653Z,18.65
2022-10-19T11:09:16.011Z,18.56
2022-10-19T11:11:45.433Z,18.58
2022-10-19T11:14:37.556Z,18.51
2022-10-19T11:17:07.147Z,18.46
2022-10-19T11:19:44.532Z,18.55
2022-10-19T11:22:32.163Z,18.54
2022-10-19T11:25:17.856Z,18.49
2022-10-19T11:28:06.400Z,18.52
2022-10-19T11:30:42.827Z,18.40
2022-10-19T11:33:25.165Z,18.38
2022-10-19T11:35:54.414Z,18.38
2022-10-19T11:38:39.857Z,18.30
2022-10-19T11:41:18.294Z,18.17
2022-10-19T11:44:10.402Z,18.22
2022-10-19T11:46:45.717Z,18.24
2022-10-19T11:49:38.490Z,18.32
2022-10-19T11:52:50.281Z,18.35
2022-10-19T11:55:38.104Z,18.18
2022-10-19T11:58:19.881Z,18.35
2022-10-19T12:01:09.738Z,18.60
2022-10-19T12:04:00.052Z,18.71
2022-10-19T12:06:45.348Z,18.59
2022-10-19T12:09:28.248Z,18.52
2022-10-19T12:12:16.947Z,18.30
2022-10-19T12:14:46.926Z,18.44
2022-10-19T12:17:31.557Z,18.54
2022-10-19T12:20:17.540Z,18.35
2022-10-19T12:22:46.431Z,18.35
2022-10-19T12:25:14.781Z,18.25
2022-10-19T12:27:41.994Z,18.11
2022-10-19T12:30:29.100Z,18.03
2022-10-19T12:33:03.708Z,18.03
2022-10-19T12:35:30.296Z,18.09
2022-10-19T12:38:18.858Z,18.07
2022-10-19T12:41:00.722Z,17.96
2022-10-19T12:43:44.052Z,18.09
2022-10-19T12:46:41.700Z,18.08
2022-10-19T12:49:36.405Z,18.19
2022-10-19T12:52:03.787Z,18.25
2022-10-19T12:54:34.778Z,18.32
2022-10-19T12:57:04.103Z,18.48
2022-10-19T12:59:35.732Z,18.55
2022-10-19T13:02:05.673Z,18.53
2022-10-19T13:14:04.889Z,18.75
2022-10-19T13:16:32.629Z,18.90
2022-10-19T13:18:59.215Z,19.00
2022-10-19T13:21:44.897Z,18.83
2022-10-19T13:24:23.737Z,18.83
2022-10-19T13:27:02.375Z,18.94
2022-10-19T13:29:39.120Z,19.00
2022-10-19T13:32:30.959Z,19.00
2022-10-19T13:35:26.333Z,19.02
2022-10-19T13:38:11.986Z,19.03
2022-10-19T13:40:42.039Z,19.32
2022-10-19T13:43:19.241Z,19.47
2022-10-19T13:46:15.853Z,19.52
2022-10-19T13:49:01.514Z,19.51
2022-10-19T13:51:43.688Z,19.63
2022-10-19T13:54:16.369Z,19.50
2022-10-19T13:56:59.141Z,19.43
2022-10-19T13:59:49.388Z,19.50
2022-10-19T14:02:23.769Z,19.37
2022-10-19T14:05:21.756Z,19.25
2022-10-19T14:07:51.535Z,19.10
2022-10-19T14:10:21.013Z,18.91
2022-10-19T14:12:48.933Z,18.96
2022-10-19T14:15:18.569Z,19.01
2022-10-19T14:17:45.895Z,19.10
2022-10-19T14:20:24.707Z,19.14
2022-10-19T14:22:52.149Z,18.97
2022-10-19T14:25:21.783Z,18.79
2022-10-19T14:27:59.466Z,18.67
2022-10-19T14:30:34.799Z,18.68
2022-10-19T14:33:07.669Z,18.55
2022-10-19T14:35:37.457Z,18.55
2022-10-19T14:38:06.132Z,18.48
2022-10-19T14:40:34.755Z,18.34
2022-10-19T14:43:01.622Z,18.31
2022-10-19T14:45:32.713Z,18.34
2022-10-19T14:48:07.010Z,18.24
2022-10-19T14:50:43.381Z,18.14
2022-10-19T14:53:20.340Z,18.12
2022-10-19T14:55:48.033Z,18.05
2022-10-19T14:58:18.751Z,18.08
2022-10-19T15:00:47.177Z,17.93
2022-10-19T15:03:20.933Z,17.98
2022-10-19T15:05:49.355Z,17.94
2022-10-19T15:08:31.007Z,17.90
2022-10-19T15:10:57.821Z,17.84
2022-10-19T15:13:27.922Z,17.85
2022-10-19T15:15:55.185Z,17.86
2022-10-19T15:18:47.616Z,17.81
2022-10-19T15:21:18.970Z,18.00
2022-10-19T15:23:50.086Z,17.92
2022-10-19T15:26:25.886Z,17.87
2022-10-19T15:28:54.095Z,17.89
2022-10-19T15:31:25.646Z,17.90
2022-10-19T15:33:54.573Z,17.80
2022-10-19T15:36:22.590Z,17.86
2022-10-19T15:39:06.374Z,17.89
2022-10-19T15:41:44.980Z,17.83
2022-10-19T15:44:49.017Z,17.74
2022-10-19T15:47:15.717Z,17.67
2022-10-19T15:49:42.620Z,17.62
2022-10-19T15:52:22.806Z,17.61
2022-10-19T15:54:50.880Z,17.62
2022-10-19T15:57:31.573Z,17.59
2022-10-19T16:00:00.564Z,17.60
2022-10-19T16:02:27.227Z,17.63
2022-10-19T16:04:54.450Z,17.63
2022-10-19T16:07:26.936Z,17.65
2022-10-19T16:09:54.488Z,17.67
2022-10-19T16:12:22.225Z,17.64
2022-10-19T16:14:48.816Z,17.62
2022-10-19T16:17:15.947Z,17.57
2022-10-19T16:19:42.933Z,17.54
2022-10-19T16:22:09.759Z,17.53
2022-10-19T16:24:36.405Z,17.50
2022-10-19T16:27:03.123Z,17.43
2022-10-19T16:29:29.797Z,17.32
2022-10-19T16:31:56.392Z,17.25
2022-10-19T16:34:23.092Z,17.28
2022-10-19T16:36:49.790Z,17.26
2022-10-19T16:39:16.555Z,17.24
2022-10-19T16:41:44.317Z,17.17
2022-10-19T16:44:12.518Z,17.14
2022-10-19T16:46:39.605Z,17.05
2022-10-19T16:49:06.331Z,17.04
2022-10-19T16:51:42.647Z,16.89
2022-10-19T16:54:11.361Z,16.81
2022-10-19T16:56:45.905Z,16.81
2022-10-19T16:59:14.966Z,16.79
2022-10-19T17:01:42.330Z,16.75
2022-10-19T17:04:09.095Z,16.65
2022-10-19T17:06:35.800Z,16.64
2022-10-19T17:11:49.977Z,16.51
2022-10-19T17:14:16.566Z,16.49
2022-10-19T17:16:43.294Z,16.41
2022-10-19T17:19:10.518Z,16.41
2022-10-19T17:21:38.649Z,16.43
2022-10-19T17:24:07.768Z,16.36
2022-10-19T17:26:40.265Z,16.32
2022-10-19T17:29:06.887Z,16.20
2022-10-19T17:31:34.139Z,16.13
2022-10-19T17:34:01.966Z,16.04
2022-10-19T17:36:30.870Z,15.98
2022-10-19T17:39:00.021Z,15.88
2022-10-19T17:41:27.675Z,15.87
2022-10-19T17:43:55.018Z,15.83
2022-10-19T17:46:24.331Z,15.78
2022-10-19T17:48:51.175Z,15.79
2022-10-19T17:51:20.419Z,15.71
2022-10-19T17:53:48.402Z,15.69
2022-10-19T17:56:20.011Z,15.68
2022-10-19T17:58:46.926Z,15.58
2022-10-19T18:01:14.492Z,15.52
2022-10-19T18:03:41.473Z,15.51
2022-10-19T18:06:18.761Z,15.45
2022-10-19T18:08:49.105Z,15.39
2022-10-19T18:11:24.856Z,15.39
2022-10-19T18:13:52.703Z,15.33
2022-10-19T18:16:25.500Z,15.30
2022-10-19T18:18:54.981Z,15.38
2022-10-19T18:21:25.875Z,15.30
2022-10-19T18:23:53.666Z,15.25
2022-10-19T18:26:22.363Z,15.21
2022-10-19T18:28:50.292Z,15.18
2022-10-19T18:31:22.300Z,15.12
2022-10-19T18:33:50.780Z,15.12
2022-10-19T18:36:17.383Z,15.11
2022-10-19T18:38:44.111Z,15.13
2022-10-19T18:44:02.015Z,15.13
2022-10-19T18:46:29.085Z,15.10
2022-10-19T18:48:55.701Z,15.12
2022-10-19T18:51:23.686Z,15.08
2022-10-19T18:53:50.679Z,15.08
2022-10-19T18:56:19.676Z,15.05
2022-10-19T18:58:46.949Z,15.13
2022-10-19T19:01:13.566Z,15.20
2022-10-19T19:03:42.628Z,15.24
2022-10-19T19:06:14.670Z,15.27
2022-10-19T19:08:41.503Z,15.27
2022-10-19T19:11:10.450Z,15.24
2022-10-19T19:13:37.615Z,15.28
2022-10-19T19:16:04.829Z,15.36
2022-10-19T19:18:33.811Z,15.35
2022-10-19T19:21:02.141Z,15.26
2022-10-19T19:23:30.293Z,15.25
2022-10-19T19:25:57.446Z,15.22
2022-10-19T19:28:24.128Z,15.23
2022-10-19T19:30:50.840Z,15.27
2022-10-19T19:33:17.601Z,15.27
2022-10-19T19:35:48.233Z,15.30
2022-10-19T19:38:15.547Z,15.29
2022-10-19T19:40:43.745Z,15.35
2022-10-19T19:43:11.014Z,15.30
2022-10-19T19:45:38.188Z,15.24
2022-10-19T19:48:06.004Z,15.17
2022-10-19T19:50:33.407Z,15.08
2022-10-19T19:53:00.793Z,14.99
2022-10-19T19:55:28.505Z,14.92
2022-10-19T19:57:55.399Z,14.83
2022-10-19T20:00:23.411Z,14.78
2022-10-19T20:02:54.328Z,14.70
2022-10-19T20:05:21.119Z,14.66
2022-10-19T20:07:48.050Z,14.64
2022-10-19T20:10:18.138Z,14.60
2022-10-19T20:12:45.928Z,14.49
2022-10-19T20:15:14.200Z,14.43
2022-10-19T20:17:41.145Z,14.39
2022-10-19T20:20:09.797Z,14.44
2022-10-19T20:22:37.073Z,14.42
2022-10-19T20:25:04.534Z,14.37
2022-10-19T20:27:35.036Z,14.31
2022-10-19T20:30:01.921Z,14.33
2022-10-19T20:32:29.002Z,14.33
2022-10-19T20:34:55.690Z,14.33
2022-10-19T20:37:22.305Z,14.31
2022-10-19T20:39:49.293Z,14.26
2022-10-19T20:42:17.773Z,14.26
2022-10-19T20:44:44.842Z,14.18
2022-10-19T20:47:11.819Z,14.17
2022-10-19T20:49:40.801Z,14.10
2022-10-19T20:52:07.807Z,14.10
2022-10-19T20:54:35.797Z,14.09
2022-10-19T20:57:02.431Z,14.05
2022-10-19T20:59:30.412Z,14.04
2022-10-19T21:01:57.952Z,14.07
2022-10-19T21:04:25.706Z,14.00
2022-10-19T21:06:52.588Z,13.94
2022-10-19T21:09:21.721Z,13.94
2022-10-19T21:11:50.276Z,13.89
2022-10-19T21:14:25.296Z,13.97
2022-10-19T21:16:56.610Z,13.92
2022-10-19T21:19:25.528Z,13.87
2022-10-19T21:21:57.076Z,13.80
2022-10-19T21:24:26.133Z,13.78
2022-10-19T21:26:52.995Z,13.76
2022-10-19T21:29:19.666Z,13.71
2022-10-19T21:31:49.113Z,13.73
2022-10-19T21:34:24.881Z,13.80
2022-10-19T21:36:51.589Z,13.80
2022-10-19T21:39:18.743Z,13.78
2022-10-19T21:41:46.501Z,13.75
2022-10-19T21:44:14.332Z,13.73
2022-10-19T21:46:43.009Z,13.65
2022-10-19T21:49:12.887Z,13.59
2022-10-19T21:51:42.960Z,13.57
2022-10-19T21:54:13.332Z,13.55
2022-10-19T21:56:40.320Z,13.51
2022-10-19T21:59:07.004Z,13.50
2022-10-19T22:01:38.563Z,13.44
2022-10-19T22:04:12.157Z,13.35
2022-10-19T22:06:38.922Z,13.30
2022-10-19T22:09:07.084Z,13.32
2022-10-19T22:11:34.332Z,13.33
2022-10-19T22:14:02.765Z,13.34
2022-10-19T22:16:29.909Z,13.32
2022-10-19T22:18:57.054Z,13.32
2022-10-19T22:21:26.944Z,13.30
2022-10-19T22:23:59.144Z,13.33
2022-10-19T22:26:31.566Z,13.33
2022-10-19T22:28:59.634Z,13.31
2022-10-19T22:31:27.245Z,13.26
2022-10-19T22:33:54.145Z,13.25
2022-10-19T22:36:21.004Z,13.23
2022-10-19T22:38:47.868Z,13.18
2022-10-19T22:41:14.542Z,13.21
2022-10-19T22:43:41.172Z,13.17
2022-10-19T22:46:07.866Z,13.18
2022-10-19T22:48:34.470Z,13.19
2022-10-19T22:51:01.099Z,13.13
2022-10-19T22:53:27.776Z,13.04
2022-10-19T22:55:54.333Z,13.05
2022-10-19T22:58:21.015Z,13.12
2022-10-19T23:01:18.617Z,13.17
2022-10-19T23:03:45.448Z,13.20
2022-10-19T23:06:13.743Z,13.19
2022-10-19T23:08:40.347Z,13.22
2022-10-19T23:11:07.044Z,13.22
2022-10-19T23:13:33.719Z,13.22
2022-10-19T23:16:00.412Z,13.18
2022-10-19T23:18:26.999Z,13.21
2022-10-19T23:21:01.031Z,13.20
2022-10-19T23:23:29.105Z,13.17
2022-10-19T23:26:00.802Z,13.19
2022-10-19T23:28:28.269Z,13.18
2022-10-19T23:30:57.258Z,13.16
2022-10-19T23:33:24.393Z,13.16
2022-10-19T23:35:51.071Z,13.15
2022-10-19T23:38:18.041Z,13.16
2022-10-19T23:40:44.890Z,13.20
2022-10-19T23:43:11.783Z,13.15
2022-10-19T23:45:41.516Z,13.17
2022-10-19T23:48:08.207Z,13.10
2022-10-19T23:50:34.948Z,13.08
2022-10-19T23:53:01.629Z,13.08
2022-10-19T23:55:28.419Z,13.06
2022-10-19T23:57:55.033Z,13.04
